Consulta los datos en tiempo real de la estación meteorológica de Cercs - La Baells
| Hora UTC | 04:00 |
|---|---|
| Temperatura | 10.1 ºC |
| Humedad | 91.8 % |
| Presión | 1016.2 hPa |
| Pluja | 0.7 mm |
| Velocidad viento | 1.1 km/h |
| Dirección viento | NW |
| Temperatura (ºC) | Humedad (%) | Presión (hPa) | Velocidad viento (km/h) | Precipitación (mm) | ||||||||||||
|---|---|---|---|---|---|---|---|---|---|---|---|---|---|---|---|---|
| Hora UTC | Aire | Humedad | Presión | Vel. | Dir. | Vel. Max | Dir. | Intent. máx 5 min. | ||||||||
| 00:05 | 11.2 | 87.3 | 1017.2 | 0.1 | WNW | 0.1 | WNW | 0.1 | ||||||||
| 00:10 | 11.1 | 88.7 | 1017.2 | 0.1 | SSW | 0.1 | WNW | 0.0 | ||||||||
| 00:15 | 11.1 | 89.4 | 1017.2 | 0.1 | SE | 0.1 | WNW | 0.0 | ||||||||
| 00:20 | 11.0 | 89.4 | 1017.2 | 0.1 | WNW | 0.1 | WNW | 0.0 | ||||||||
| 00:25 | 11.0 | 89.4 | 1017.2 | 0.2 | NW | 0.2 | NW | 0.0 | ||||||||
| 00:30 | 11.0 | 89.3 | 1017.2 | 0.2 | NW | 0.2 | NW | 0.0 | ||||||||
| 00:35 | 11.1 | 89.2 | 1017.2 | 0.2 | NW | 0.2 | NW | 0.0 | ||||||||
| 00:40 | 11.1 | 89.4 | 1017.2 | 0.1 | SW | 0.2 | NW | 0.0 | ||||||||
| 00:45 | 11.1 | 89.5 | 1017.2 | 0.1 | S | 0.2 | NW | 0.0 | ||||||||
| 00:50 | 11.2 | 89.2 | 1017.2 | 0.1 | S | 0.2 | NW | 0.0 | ||||||||
| 00:55 | 11.2 | 89.1 | 1017.2 | 0.1 | S | 0.2 | NW | 0.0 | ||||||||
| 01:00 | 11.2 | 88.8 | 1017.2 | 0.1 | NW | 0.2 | NW | 0.0 | ||||||||
| 01:05 | 11.2 | 88.7 | 1017.2 | 0.1 | NNW | 0.2 | NW | 0.0 | ||||||||
| 01:10 | 11.2 | 89.0 | 1016.5 | 0.1 | WSW | 0.2 | NW | 0.0 | ||||||||
| 01:15 | 11.2 | 89.2 | 1016.2 | 0.1 | SSW | 0.2 | NW | 0.0 | ||||||||
| 01:20 | 11.2 | 89.2 | 1016.2 | 0.1 | SSW | 0.2 | NW | 0.0 | ||||||||
| 01:25 | 11.2 | 89.2 | 1016.2 | 0.1 | SSW | 0.2 | NW | 0.0 | ||||||||
| 01:30 | 11.2 | 89.5 | 1016.2 | 0.1 | SSW | 0.2 | NW | 0.0 | ||||||||
| 01:35 | 11.1 | 89.7 | 1016.2 | 0.1 | S | 0.2 | NW | 0.0 | ||||||||
| 01:40 | 11.1 | 89.9 | 1016.2 | 0.2 | S | 0.2 | NW | 0.0 | ||||||||
| 01:45 | 11.1 | 90.0 | 1016.2 | 0.2 | S | 0.2 | NW | 0.0 | ||||||||
| 01:50 | 11.1 | 90.3 | 1016.2 | 0.1 | S | 0.2 | NW | 0.0 | ||||||||
| 01:55 | 11.1 | 90.4 | 1016.2 | 0.1 | S | 0.2 | NW | 0.0 | ||||||||
| 01:55 | 11.1 | 90.4 | 1016.2 | 0.1 | S | 0.2 | NW | 0.0 | ||||||||
| 01:55 | 11.1 | 90.4 | 1016.2 | 0.1 | S | 0.2 | NW | 0.0 | ||||||||
| 02:15 | 10.8 | 89.6 | 1016.2 | 1.1 | WNW | 1.1 | WNW | 0.0 | ||||||||
| 02:20 | 10.7 | 89.4 | 1016.2 | 1.0 | WNW | 1.1 | WNW | 0.0 | ||||||||
| 02:25 | 10.7 | 89.4 | 1016.2 | 0.9 | WNW | 1.1 | WNW | 0.0 | ||||||||
| 02:30 | 10.7 | 88.7 | 1016.2 | 1.0 | NW | 1.1 | WNW | 0.0 | ||||||||
| 02:35 | 10.7 | 88.4 | 1016.2 | 1.0 | NW | 1.1 | WNW | 0.0 | ||||||||
| 02:40 | 10.7 | 87.2 | 1016.2 | 1.1 | WNW | 1.1 | WNW | 0.0 | ||||||||
| 02:45 | 10.8 | 86.9 | 1016.2 | 1.2 | WNW | 1.2 | WNW | 0.1 | ||||||||
| 02:50 | 10.8 | 86.9 | 1016.2 | 1.0 | WNW | 1.2 | WNW | 0.1 | ||||||||
| 02:55 | 10.8 | 86.9 | 1016.2 | 0.9 | NW | 1.2 | WNW | 0.0 | ||||||||
| 03:00 | 10.6 | 88.9 | 1016.2 | 0.9 | NW | 1.2 | WNW | 0.1 | ||||||||
| 03:05 | 10.5 | 89.5 | 1016.2 | 1.0 | WNW | 1.2 | WNW | 0.0 | ||||||||
| 03:10 | 10.4 | 90.1 | 1016.2 | 1.1 | WNW | 1.2 | WNW | 0.0 | ||||||||
| 03:15 | 10.3 | 90.4 | 1016.2 | 1.2 | WNW | 1.2 | WNW | 0.0 | ||||||||
| 03:20 | 10.3 | 90.8 | 1016.2 | 1.2 | WNW | 1.2 | WNW | 0.0 | ||||||||
| 03:25 | 10.3 | 90.9 | 1016.2 | 1.2 | NW | 1.2 | NW | 0.0 | ||||||||
| 03:30 | 10.2 | 91.6 | 1016.2 | 1.2 | NW | 1.2 | NW | 0.0 | ||||||||
| 03:35 | 10.2 | 91.9 | 1016.2 | 1.2 | NW | 1.2 | NW | 0.1 | ||||||||
| 03:40 | 10.2 | 91.9 | 1016.2 | 1.2 | NW | 1.2 | NW | 0.1 | ||||||||
| 03:45 | 10.1 | 91.9 | 1016.2 | 1.2 | NW | 1.2 | NW | 0.1 | ||||||||
| 03:50 | 10.1 | 91.9 | 1016.2 | 1.1 | NW | 1.2 | NW | 0.0 | ||||||||
| 03:55 | 10.1 | 91.9 | 1016.2 | 1.1 | NW | 1.2 | NW | 0.0 | ||||||||
| 04:00 | 10.1 | 91.8 | 1016.2 | 1.1 | NW | 1.2 | NW | 0.0 | ||||||||
| Máxima | 11.2 | 91.9 | 1017.2 | 1.2 | NW | 1.2 | NW | 0.1 | ||||||||
| Mínima | 10.1 | 86.9 | 1016.2 | |||||||||||||
| Total | 0.7 | |||||||||||||||